sensor_id;sensor_type;location;lat;lon;timestamp;P1;durP1;ratioP1;P2;durP2;ratioP2
2756;SDS011;1386;50.862;6.494;2023-09-19T00:00:30;4.23;;;1.90;;
2756;SDS011;1386;50.862;6.494;2023-09-19T00:02:59;7.07;;;1.80;;
2756;SDS011;1386;50.862;6.494;2023-09-19T00:05:27;4.93;;;1.77;;
2756;SDS011;1386;50.862;6.494;2023-09-19T00:07:56;3.20;;;1.90;;
2756;SDS011;1386;50.862;6.494;2023-09-19T00:10:24;4.83;;;2.20;;
2756;SDS011;1386;50.862;6.494;2023-09-19T00:12:52;3.10;;;2.03;;
2756;SDS011;1386;50.862;6.494;2023-09-19T00:15:20;3.40;;;1.90;;
2756;SDS011;1386;50.862;6.494;2023-09-19T00:17:48;3.27;;;2.17;;
2756;SDS011;1386;50.862;6.494;2023-09-19T00:20:17;5.33;;;2.10;;
2756;SDS011;1386;50.862;6.494;2023-09-19T00:22:48;6.30;;;2.43;;
2756;SDS011;1386;50.862;6.494;2023-09-19T00:25:15;6.43;;;3.20;;
2756;SDS011;1386;50.862;6.494;2023-09-19T00:27:42;7.37;;;1.80;;
2756;SDS011;1386;50.862;6.494;2023-09-19T00:30:10;11.57;;;3.10;;
2756;SDS011;1386;50.862;6.494;2023-09-19T00:32:41;7.70;;;2.20;;
2756;SDS011;1386;50.862;6.494;2023-09-19T00:35:08;7.17;;;2.20;;
2756;SDS011;1386;50.862;6.494;2023-09-19T00:37:36;5.50;;;2.10;;
2756;SDS011;1386;50.862;6.494;2023-09-19T00:40:06;7.50;;;2.37;;
2756;SDS011;1386;50.862;6.494;2023-09-19T00:42:37;3.60;;;1.97;;
2756;SDS011;1386;50.862;6.494;2023-09-19T00:45:05;7.53;;;2.77;;
2756;SDS011;1386;50.862;6.494;2023-09-19T00:47:34;6.63;;;2.47;;
2756;SDS011;1386;50.862;6.494;2023-09-19T00:50:02;6.30;;;2.10;;
2756;SDS011;1386;50.862;6.494;2023-09-19T00:52:32;7.70;;;2.90;;
2756;SDS011;1386;50.862;6.494;2023-09-19T00:55:01;7.10;;;2.73;;
2756;SDS011;1386;50.862;6.494;2023-09-19T00:57:30;5.00;;;2.10;;
2756;SDS011;1386;50.862;6.494;2023-09-19T00:59:58;7.50;;;2.77;;
2756;SDS011;1386;50.862;6.494;2023-09-19T01:02:29;6.17;;;2.83;;
2756;SDS011;1386;50.862;6.494;2023-09-19T01:04:57;6.70;;;2.90;;
2756;SDS011;1386;50.862;6.494;2023-09-19T01:07:24;4.10;;;1.93;;
2756;SDS011;1386;50.862;6.494;2023-09-19T01:09:51;14.10;;;2.17;;
2756;SDS011;1386;50.862;6.494;2023-09-19T01:12:22;5.33;;;2.13;;
2756;SDS011;1386;50.862;6.494;2023-09-19T01:14:59;5.10;;;2.17;;
2756;SDS011;1386;50.862;6.494;2023-09-19T01:17:32;7.93;;;2.17;;
2756;SDS011;1386;50.862;6.494;2023-09-19T01:20:17;6.70;;;2.20;;
2756;SDS011;1386;50.862;6.494;2023-09-19T01:22:55;7.23;;;2.43;;
2756;SDS011;1386;50.862;6.494;2023-09-19T01:25:33;5.73;;;2.10;;
2756;SDS011;1386;50.862;6.494;2023-09-19T01:28:30;6.60;;;2.63;;
2756;SDS011;1386;50.862;6.494;2023-09-19T01:31:03;7.00;;;2.90;;
2756;SDS011;1386;50.862;6.494;2023-09-19T01:36:26;4.40;;;2.07;;
2756;SDS011;1386;50.862;6.494;2023-09-19T01:38:55;7.70;;;2.83;;
2756;SDS011;1386;50.862;6.494;2023-09-19T01:41:26;7.90;;;2.37;;
2756;SDS011;1386;50.862;6.494;2023-09-19T01:44:05;6.13;;;2.23;;
2756;SDS011;1386;50.862;6.494;2023-09-19T01:46:37;7.00;;;2.37;;
2756;SDS011;1386;50.862;6.494;2023-09-19T01:49:11;4.50;;;2.53;;
2756;SDS011;1386;50.862;6.494;2023-09-19T01:51:50;3.30;;;1.60;;
2756;SDS011;1386;50.862;6.494;2023-09-19T01:54:24;7.40;;;2.47;;
2756;SDS011;1386;50.862;6.494;2023-09-19T01:56:57;5.33;;;2.30;;
2756;SDS011;1386;50.862;6.494;2023-09-19T01:59:31;7.40;;;2.40;;
2756;SDS011;1386;50.862;6.494;2023-09-19T02:02:04;8.03;;;3.47;;
2756;SDS011;1386;50.862;6.494;2023-09-19T02:04:33;4.70;;;1.97;;
2756;SDS011;1386;50.862;6.494;2023-09-19T02:07:01;4.00;;;2.60;;
2756;SDS011;1386;50.862;6.494;2023-09-19T02:09:30;8.53;;;2.60;;
2756;SDS011;1386;50.862;6.494;2023-09-19T02:11:58;6.57;;;2.00;;
2756;SDS011;1386;50.862;6.494;2023-09-19T02:14:25;4.90;;;2.20;;
2756;SDS011;1386;50.862;6.494;2023-09-19T02:16:52;6.90;;;2.33;;
2756;SDS011;1386;50.862;6.494;2023-09-19T02:19:21;5.70;;;2.00;;
2756;SDS011;1386;50.862;6.494;2023-09-19T02:21:47;6.23;;;2.23;;
2756;SDS011;1386;50.862;6.494;2023-09-19T02:24:14;6.80;;;2.00;;
2756;SDS011;1386;50.862;6.494;2023-09-19T02:26:41;8.70;;;2.90;;
2756;SDS011;1386;50.862;6.494;2023-09-19T02:29:09;7.53;;;2.60;;
2756;SDS011;1386;50.862;6.494;2023-09-19T02:31:38;5.83;;;2.20;;
2756;SDS011;1386;50.862;6.494;2023-09-19T02:34:05;6.23;;;1.83;;
2756;SDS011;1386;50.862;6.494;2023-09-19T02:36:36;8.60;;;2.27;;
2756;SDS011;1386;50.862;6.494;2023-09-19T02:39:03;6.27;;;2.50;;
2756;SDS011;1386;50.862;6.494;2023-09-19T02:41:33;5.63;;;2.20;;
2756;SDS011;1386;50.862;6.494;2023-09-19T02:44:00;6.03;;;2.33;;
2756;SDS011;1386;50.862;6.494;2023-09-19T02:46:27;10.47;;;2.47;;
2756;SDS011;1386;50.862;6.494;2023-09-19T02:48:54;6.53;;;2.23;;
2756;SDS011;1386;50.862;6.494;2023-09-19T02:51:21;6.47;;;2.50;;
2756;SDS011;1386;50.862;6.494;2023-09-19T02:53:49;6.83;;;2.37;;
2756;SDS011;1386;50.862;6.494;2023-09-19T02:56:17;9.63;;;2.40;;
2756;SDS011;1386;50.862;6.494;2023-09-19T02:58:44;9.83;;;2.13;;
2756;SDS011;1386;50.862;6.494;2023-09-19T03:01:13;7.60;;;2.50;;
2756;SDS011;1386;50.862;6.494;2023-09-19T03:03:40;4.70;;;2.23;;
2756;SDS011;1386;50.862;6.494;2023-09-19T10:56:44;4.33;;;2.10;;
2756;SDS011;1386;50.862;6.494;2023-09-19T10:59:15;4.03;;;1.87;;
2756;SDS011;1386;50.862;6.494;2023-09-19T11:01:43;3.90;;;1.70;;
2756;SDS011;1386;50.862;6.494;2023-09-19T11:04:21;8.57;;;2.50;;
2756;SDS011;1386;50.862;6.494;2023-09-19T11:25:55;6.93;;;2.23;;
2756;SDS011;1386;50.862;6.494;2023-09-19T11:28:35;4.93;;;2.10;;
2756;SDS011;1386;50.862;6.494;2023-09-19T11:40:27;11.87;;;7.03;;
2756;SDS011;1386;50.862;6.494;2023-09-19T11:42:55;7.27;;;4.00;;
2756;SDS011;1386;50.862;6.494;2023-09-19T11:48:27;6.37;;;2.57;;
2756;SDS011;1386;50.862;6.494;2023-09-19T11:50:55;4.03;;;2.13;;
2756;SDS011;1386;50.862;6.494;2023-09-19T11:53:24;10.80;;;2.60;;
2756;SDS011;1386;50.862;6.494;2023-09-19T11:56:01;6.40;;;1.87;;
2756;SDS011;1386;50.862;6.494;2023-09-19T11:58:35;7.37;;;2.83;;
2756;SDS011;1386;50.862;6.494;2023-09-19T12:01:04;5.73;;;2.17;;
2756;SDS011;1386;50.862;6.494;2023-09-19T12:03:38;7.10;;;2.67;;
2756;SDS011;1386;50.862;6.494;2023-09-19T12:06:12;5.67;;;2.63;;
2756;SDS011;1386;50.862;6.494;2023-09-19T12:08:41;7.47;;;2.00;;
2756;SDS011;1386;50.862;6.494;2023-09-19T12:11:19;8.10;;;2.80;;
2756;SDS011;1386;50.862;6.494;2023-09-19T12:13:50;3.20;;;1.73;;
2756;SDS011;1386;50.862;6.494;2023-09-19T12:16:32;3.73;;;2.10;;
2756;SDS011;1386;50.862;6.494;2023-09-19T12:21:56;5.07;;;1.83;;
2756;SDS011;1386;50.862;6.494;2023-09-19T12:24:24;6.07;;;1.70;;
2756;SDS011;1386;50.862;6.494;2023-09-19T12:26:54;6.23;;;2.30;;
2756;SDS011;1386;50.862;6.494;2023-09-19T12:29:43;4.60;;;1.60;;
2756;SDS011;1386;50.862;6.494;2023-09-19T12:35:07;6.30;;;1.60;;
2756;SDS011;1386;50.862;6.494;2023-09-19T12:37:38;3.63;;;1.87;;
2756;SDS011;1386;50.862;6.494;2023-09-19T12:40:20;3.50;;;1.57;;
2756;SDS011;1386;50.862;6.494;2023-09-19T12:43:24;6.20;;;2.30;;
2756;SDS011;1386;50.862;6.494;2023-09-19T12:46:04;4.03;;;1.70;;
2756;SDS011;1386;50.862;6.494;2023-09-19T12:48:39;2.87;;;1.53;;
2756;SDS011;1386;50.862;6.494;2023-09-19T12:51:09;3.10;;;1.23;;
2756;SDS011;1386;50.862;6.494;2023-09-19T12:53:56;7.43;;;2.30;;
2756;SDS011;1386;50.862;6.494;2023-09-19T12:56:24;4.17;;;1.27;;
2756;SDS011;1386;50.862;6.494;2023-09-19T12:59:01;4.30;;;1.17;;
2756;SDS011;1386;50.862;6.494;2023-09-19T13:01:45;4.07;;;1.33;;
2756;SDS011;1386;50.862;6.494;2023-09-19T13:04:15;4.23;;;1.30;;
2756;SDS011;1386;50.862;6.494;2023-09-19T13:06:45;5.80;;;1.60;;
2756;SDS011;1386;50.862;6.494;2023-09-19T13:09:15;2.10;;;1.30;;
2756;SDS011;1386;50.862;6.494;2023-09-19T13:11:43;9.60;;;1.30;;
2756;SDS011;1386;50.862;6.494;2023-09-19T13:14:13;4.27;;;1.40;;
2756;SDS011;1386;50.862;6.494;2023-09-19T13:16:52;4.50;;;1.53;;
2756;SDS011;1386;50.862;6.494;2023-09-19T13:19:34;4.33;;;1.10;;
2756;SDS011;1386;50.862;6.494;2023-09-19T13:25:07;3.37;;;1.33;;
2756;SDS011;1386;50.862;6.494;2023-09-19T13:27:41;1.87;;;1.40;;
2756;SDS011;1386;50.862;6.494;2023-09-19T13:30:09;3.70;;;1.40;;
2756;SDS011;1386;50.862;6.494;2023-09-19T13:32:37;3.13;;;1.30;;
2756;SDS011;1386;50.862;6.494;2023-09-19T13:35:06;3.67;;;1.33;;
2756;SDS011;1386;50.862;6.494;2023-09-19T13:37:34;4.10;;;1.40;;
2756;SDS011;1386;50.862;6.494;2023-09-19T13:40:03;4.33;;;1.27;;
2756;SDS011;1386;50.862;6.494;2023-09-19T13:42:32;4.23;;;1.43;;
2756;SDS011;1386;50.862;6.494;2023-09-19T13:45:01;5.13;;;1.43;;
2756;SDS011;1386;50.862;6.494;2023-09-19T13:47:53;3.17;;;1.57;;
2756;SDS011;1386;50.862;6.494;2023-09-19T13:50:20;2.83;;;1.00;;
2756;SDS011;1386;50.862;6.494;2023-09-19T13:52:49;3.43;;;0.97;;
2756;SDS011;1386;50.862;6.494;2023-09-19T13:55:18;5.53;;;1.77;;
2756;SDS011;1386;50.862;6.494;2023-09-19T13:57:45;2.50;;;1.20;;
2756;SDS011;1386;50.862;6.494;2023-09-19T14:00:15;4.63;;;1.30;;
2756;SDS011;1386;50.862;6.494;2023-09-19T14:02:42;2.47;;;1.00;;
2756;SDS011;1386;50.862;6.494;2023-09-19T14:05:11;3.90;;;1.13;;
2756;SDS011;1386;50.862;6.494;2023-09-19T14:07:41;1.97;;;1.23;;
2756;SDS011;1386;50.862;6.494;2023-09-19T14:10:09;3.43;;;1.13;;
2756;SDS011;1386;50.862;6.494;2023-09-19T14:12:38;1.60;;;0.90;;
2756;SDS011;1386;50.862;6.494;2023-09-19T14:15:06;2.70;;;1.20;;
2756;SDS011;1386;50.862;6.494;2023-09-19T14:17:34;4.30;;;1.37;;
2756;SDS011;1386;50.862;6.494;2023-09-19T14:20:12;2.10;;;1.20;;
2756;SDS011;1386;50.862;6.494;2023-09-19T14:22:42;1.83;;;1.10;;
2756;SDS011;1386;50.862;6.494;2023-09-19T14:25:09;2.23;;;0.90;;
2756;SDS011;1386;50.862;6.494;2023-09-19T14:27:38;1.87;;;1.10;;
2756;SDS011;1386;50.862;6.494;2023-09-19T14:30:05;2.43;;;1.30;;
2756;SDS011;1386;50.862;6.494;2023-09-19T14:32:34;4.60;;;1.07;;
2756;SDS011;1386;50.862;6.494;2023-09-19T14:35:01;1.80;;;1.20;;
2756;SDS011;1386;50.862;6.494;2023-09-19T14:37:28;4.53;;;1.10;;
2756;SDS011;1386;50.862;6.494;2023-09-19T14:39:56;2.43;;;0.97;;
2756;SDS011;1386;50.862;6.494;2023-09-19T14:42:23;3.80;;;1.10;;
2756;SDS011;1386;50.862;6.494;2023-09-19T14:44:51;2.83;;;1.30;;
2756;SDS011;1386;50.862;6.494;2023-09-19T14:47:18;3.30;;;1.10;;
2756;SDS011;1386;50.862;6.494;2023-09-19T14:49:45;3.10;;;1.47;;
2756;SDS011;1386;50.862;6.494;2023-09-19T14:52:11;3.50;;;1.13;;
2756;SDS011;1386;50.862;6.494;2023-09-19T14:54:40;2.30;;;1.20;;
2756;SDS011;1386;50.862;6.494;2023-09-19T14:57:07;2.07;;;1.17;;
2756;SDS011;1386;50.862;6.494;2023-09-19T14:59:35;4.20;;;1.53;;
2756;SDS011;1386;50.862;6.494;2023-09-19T15:02:04;3.03;;;1.10;;
2756;SDS011;1386;50.862;6.494;2023-09-19T15:04:31;4.50;;;1.03;;
2756;SDS011;1386;50.862;6.494;2023-09-19T15:06:58;3.73;;;1.40;;
2756;SDS011;1386;50.862;6.494;2023-09-19T15:09:25;3.10;;;1.40;;
2756;SDS011;1386;50.862;6.494;2023-09-19T15:11:52;1.63;;;0.83;;
2756;SDS011;1386;50.862;6.494;2023-09-19T15:14:19;3.13;;;1.00;;
2756;SDS011;1386;50.862;6.494;2023-09-19T15:16:47;2.60;;;1.07;;
2756;SDS011;1386;50.862;6.494;2023-09-19T15:19:16;6.23;;;1.73;;
2756;SDS011;1386;50.862;6.494;2023-09-19T15:21:44;6.40;;;1.57;;
2756;SDS011;1386;50.862;6.494;2023-09-19T15:24:11;1.40;;;0.93;;
2756;SDS011;1386;50.862;6.494;2023-09-19T15:26:38;3.13;;;1.20;;
2756;SDS011;1386;50.862;6.494;2023-09-19T15:29:05;3.63;;;1.30;;
2756;SDS011;1386;50.862;6.494;2023-09-19T15:31:32;3.27;;;1.30;;
2756;SDS011;1386;50.862;6.494;2023-09-19T15:34:01;2.17;;;1.17;;
2756;SDS011;1386;50.862;6.494;2023-09-19T15:36:30;8.10;;;1.43;;
2756;SDS011;1386;50.862;6.494;2023-09-19T15:38:58;3.50;;;2.07;;
2756;SDS011;1386;50.862;6.494;2023-09-19T15:41:26;4.43;;;1.10;;
2756;SDS011;1386;50.862;6.494;2023-09-19T15:43:54;3.20;;;1.33;;
2756;SDS011;1386;50.862;6.494;2023-09-19T15:46:26;5.20;;;1.53;;
2756;SDS011;1386;50.862;6.494;2023-09-19T15:48:56;3.47;;;1.20;;
2756;SDS011;1386;50.862;6.494;2023-09-19T15:51:23;2.90;;;1.00;;
2756;SDS011;1386;50.862;6.494;2023-09-19T15:56:42;3.93;;;1.30;;
2756;SDS011;1386;50.862;6.494;2023-09-19T15:59:09;3.13;;;1.30;;
2756;SDS011;1386;50.862;6.494;2023-09-19T16:01:45;3.47;;;1.20;;
2756;SDS011;1386;50.862;6.494;2023-09-19T16:04:13;2.50;;;1.20;;
2756;SDS011;1386;50.862;6.494;2023-09-19T16:06:42;3.40;;;1.30;;
2756;SDS011;1386;50.862;6.494;2023-09-19T16:09:09;4.87;;;1.50;;
2756;SDS011;1386;50.862;6.494;2023-09-19T16:11:37;3.27;;;1.80;;
2756;SDS011;1386;50.862;6.494;2023-09-19T16:14:06;4.90;;;1.20;;
2756;SDS011;1386;50.862;6.494;2023-09-19T16:16:34;4.10;;;1.10;;
2756;SDS011;1386;50.862;6.494;2023-09-19T16:19:03;6.53;;;1.00;;
2756;SDS011;1386;50.862;6.494;2023-09-19T16:21:36;3.67;;;1.90;;
2756;SDS011;1386;50.862;6.494;2023-09-19T16:24:05;3.70;;;1.17;;
2756;SDS011;1386;50.862;6.494;2023-09-19T16:26:35;3.93;;;1.27;;
2756;SDS011;1386;50.862;6.494;2023-09-19T16:29:11;3.97;;;1.53;;
2756;SDS011;1386;50.862;6.494;2023-09-19T16:31:39;1.83;;;1.20;;
2756;SDS011;1386;50.862;6.494;2023-09-19T16:34:06;2.47;;;1.10;;
2756;SDS011;1386;50.862;6.494;2023-09-19T16:36:34;4.27;;;1.57;;
2756;SDS011;1386;50.862;6.494;2023-09-19T16:39:03;3.70;;;1.17;;
2756;SDS011;1386;50.862;6.494;2023-09-19T16:41:32;8.10;;;1.97;;
2756;SDS011;1386;50.862;6.494;2023-09-19T16:44:00;3.57;;;1.63;;
2756;SDS011;1386;50.862;6.494;2023-09-19T16:46:29;2.90;;;1.20;;
2756;SDS011;1386;50.862;6.494;2023-09-19T16:48:56;6.80;;;1.20;;
2756;SDS011;1386;50.862;6.494;2023-09-19T16:51:28;2.00;;;1.67;;
